createdAt,value
2023-03-30T00:00:18.807Z,5.35
2023-03-30T00:05:24.023Z,4.45
2023-03-30T00:10:27.113Z,4.35
2023-03-30T00:15:31.205Z,3.22
2023-03-30T00:20:33.970Z,6.90
2023-03-30T00:25:36.703Z,4.25
2023-03-30T00:30:40.665Z,3.40
2023-03-30T00:35:43.333Z,5.15
2023-03-30T00:40:51.362Z,3.60
2023-03-30T00:45:56.547Z,6.18
2023-03-30T00:51:00.932Z,4.22
2023-03-30T00:56:05.540Z,4.68
2023-03-30T01:01:11.642Z,4.28
2023-03-30T01:06:18.002Z,2.17
2023-03-30T01:11:21.199Z,4.90
2023-03-30T01:16:28.246Z,2.80
2023-03-30T01:22:01.104Z,3.55
2023-03-30T01:27:11.226Z,3.13
2023-03-30T01:32:34.758Z,4.32
2023-03-30T01:37:47.299Z,2.72
2023-03-30T01:42:53.845Z,2.85
2023-03-30T01:47:59.058Z,2.63
2023-03-30T01:53:02.751Z,4.00
2023-03-30T01:58:09.127Z,2.35
2023-03-30T02:03:13.933Z,4.80
2023-03-30T02:08:18.585Z,4.85
2023-03-30T02:13:24.201Z,3.67
2023-03-30T02:18:27.041Z,3.75
2023-03-30T02:23:33.694Z,4.07
2023-03-30T02:28:37.704Z,2.63
2023-03-30T02:33:44.835Z,3.33
2023-03-30T02:38:57.488Z,2.35
2023-03-30T02:44:07.309Z,4.38
2023-03-30T02:49:14.649Z,1.95
2023-03-30T02:54:27.004Z,3.25
2023-03-30T02:59:53.033Z,1.75
2023-03-30T03:04:56.016Z,4.95
2023-03-30T03:10:15.132Z,5.38
2023-03-30T03:15:19.283Z,3.72
2023-03-30T03:20:37.980Z,3.40
2023-03-30T03:25:41.050Z,3.33
2023-03-30T03:30:45.523Z,2.83
2023-03-30T03:35:54.730Z,3.20
2023-03-30T03:40:59.790Z,2.40
2023-03-30T03:46:05.435Z,1.92
2023-03-30T03:51:09.268Z,2.60
2023-03-30T03:56:12.752Z,3.13
2023-03-30T04:01:16.676Z,2.15
2023-03-30T04:06:19.352Z,2.53
2023-03-30T04:11:22.216Z,1.70
2023-03-30T04:16:43.768Z,2.47
2023-03-30T04:22:14.159Z,1.83
2023-03-30T04:27:52.316Z,4.18
2023-03-30T04:33:09.275Z,2.72
2023-03-30T04:38:58.072Z,4.60
2023-03-30T04:44:24.310Z,2.75
2023-03-30T04:49:46.529Z,2.53
2023-03-30T04:55:08.667Z,2.17
2023-03-30T05:00:33.436Z,2.53
2023-03-30T05:05:37.691Z,3.67
2023-03-30T05:10:42.799Z,2.85
2023-03-30T05:16:17.741Z,3.50
2023-03-30T05:21:41.981Z,2.40
2023-03-30T05:27:06.947Z,2.70
2023-03-30T05:32:35.534Z,3.67
2023-03-30T05:38:18.215Z,4.47
2023-03-30T05:43:41.366Z,6.45
2023-03-30T05:48:52.812Z,3.47
2023-03-30T05:54:19.847Z,4.78
2023-03-30T05:59:26.972Z,3.10
2023-03-30T06:04:49.775Z,2.85
2023-03-30T06:09:55.102Z,4.10
2023-03-30T06:15:03.308Z,3.55
2023-03-30T06:20:17.340Z,4.68
2023-03-30T06:25:24.501Z,5.30
2023-03-30T06:30:27.928Z,4.45
2023-03-30T06:35:36.195Z,8.40
2023-03-30T06:40:40.591Z,6.22
2023-03-30T06:45:44.155Z,5.97
2023-03-30T06:50:47.217Z,5.47
2023-03-30T06:55:59.274Z,3.60
2023-03-30T07:01:10.200Z,7.10
2023-03-30T07:06:23.030Z,5.95
2023-03-30T07:11:27.448Z,4.32
2023-03-30T07:16:30.079Z,5.20
2023-03-30T07:21:33.277Z,4.85
2023-03-30T07:26:37.638Z,2.70
2023-03-30T07:31:43.434Z,4.15
2023-03-30T07:36:48.952Z,5.40
2023-03-30T07:41:53.066Z,5.78
2023-03-30T07:46:55.974Z,4.88
2023-03-30T07:52:01.432Z,4.00
2023-03-30T07:57:14.711Z,5.70
2023-03-30T08:02:18.087Z,5.40
2023-03-30T08:07:27.531Z,9.48
2023-03-30T08:12:37.864Z,7.15
2023-03-30T08:17:40.395Z,5.93
2023-03-30T08:22:42.993Z,2.97
2023-03-30T08:27:47.320Z,4.57
2023-03-30T08:32:49.953Z,4.47
2023-03-30T08:37:52.671Z,7.30
2023-03-30T08:43:04.796Z,4.22
2023-03-30T08:48:12.193Z,8.32
2023-03-30T08:53:14.998Z,4.15
2023-03-30T08:58:24.124Z,7.68
2023-03-30T09:03:30.957Z,5.63
2023-03-30T09:08:34.240Z,6.85
2023-03-30T09:13:40.448Z,4.65
2023-03-30T09:18:43.727Z,4.53
2023-03-30T09:23:46.309Z,5.47
2023-03-30T09:28:57.126Z,5.00
2023-03-30T09:34:05.569Z,9.05
2023-03-30T09:39:10.456Z,6.32
2023-03-30T09:44:19.853Z,7.50
2023-03-30T09:49:22.401Z,4.75
2023-03-30T09:54:26.168Z,6.40
2023-03-30T09:59:32.039Z,7.95
2023-03-30T10:04:34.825Z,8.27
2023-03-30T10:09:44.327Z,5.93
2023-03-30T10:14:48.235Z,6.85
2023-03-30T10:20:00.398Z,5.22
2023-03-30T10:25:15.878Z,4.82
2023-03-30T10:30:21.168Z,3.75
2023-03-30T10:35:25.479Z,3.70
2023-03-30T10:40:32.580Z,5.38
2023-03-30T10:45:38.391Z,6.07
2023-03-30T10:50:46.250Z,4.40
2023-03-30T10:55:51.147Z,6.18
2023-03-30T11:01:00.248Z,4.32
2023-03-30T11:06:06.500Z,4.53
2023-03-30T11:11:12.578Z,3.50
2023-03-30T11:16:19.720Z,2.88
2023-03-30T11:21:25.878Z,5.90
2023-03-30T11:26:32.862Z,2.47
2023-03-30T11:31:45.462Z,2.22
2023-03-30T11:36:52.056Z,4.20
2023-03-30T11:41:58.977Z,4.28
2023-03-30T11:47:07.182Z,2.55
2023-03-30T11:52:16.997Z,3.10
2023-03-30T11:57:24.577Z,4.38
2023-03-30T12:02:33.759Z,4.65
2023-03-30T12:07:41.498Z,4.25
2023-03-30T12:12:45.702Z,3.45
2023-03-30T12:17:52.453Z,4.63
2023-03-30T12:22:57.107Z,6.93
2023-03-30T12:28:03.504Z,7.80
2023-03-30T12:33:12.314Z,3.45
2023-03-30T12:38:17.701Z,5.75
2023-03-30T12:43:25.028Z,6.80
2023-03-30T12:48:36.760Z,4.22
2023-03-30T12:53:49.048Z,4.25
2023-03-30T12:58:59.947Z,6.78
2023-03-30T13:04:07.851Z,6.57
2023-03-30T13:09:29.953Z,4.25
2023-03-30T13:14:44.666Z,2.95
2023-03-30T13:20:12.723Z,4.28
2023-03-30T13:25:29.132Z,3.35
2023-03-30T13:30:32.221Z,3.70
2023-03-30T13:35:40.078Z,2.60
2023-03-30T13:40:57.902Z,2.92
2023-03-30T13:46:16.978Z,2.80
2023-03-30T13:51:24.163Z,3.85
2023-03-30T13:56:27.323Z,3.88
2023-03-30T14:01:30.577Z,2.97
2023-03-30T14:06:35.482Z,3.13
2023-03-30T14:11:40.035Z,3.45
2023-03-30T14:16:42.827Z,3.25
2023-03-30T14:21:47.729Z,5.40
2023-03-30T14:26:50.396Z,3.25
2023-03-30T14:32:06.593Z,2.33
2023-03-30T14:37:13.175Z,0.82
2023-03-30T14:42:17.768Z,1.17
2023-03-30T14:47:22.392Z,1.25
2023-03-30T14:52:29.966Z,0.40
2023-03-30T14:57:36.724Z,0.60
2023-03-30T15:02:41.610Z,0.50
2023-03-30T15:07:47.187Z,1.15
2023-03-30T15:12:50.540Z,1.77
2023-03-30T15:17:53.256Z,0.70
2023-03-30T15:22:57.236Z,1.00
2023-03-30T15:28:02.220Z,2.33
2023-03-30T15:33:05.784Z,1.25
2023-03-30T15:38:16.753Z,2.75
2023-03-30T15:43:20.819Z,0.38
2023-03-30T15:48:24.835Z,1.15
2023-03-30T15:53:36.653Z,0.85
2023-03-30T15:58:39.356Z,0.47
2023-03-30T16:03:48.693Z,1.50
2023-03-30T16:08:52.705Z,1.48
2023-03-30T16:13:55.305Z,0.95
2023-03-30T16:18:57.871Z,0.43
2023-03-30T16:24:02.857Z,2.70
2023-03-30T16:29:05.706Z,0.65
2023-03-30T16:34:08.226Z,1.02
2023-03-30T16:39:17.563Z,1.08
2023-03-30T16:44:20.957Z,1.63
2023-03-30T16:49:25.125Z,3.08
2023-03-30T16:54:32.721Z,1.42
2023-03-30T16:59:35.680Z,2.33
2023-03-30T17:04:38.184Z,1.35
2023-03-30T17:09:42.093Z,1.67
2023-03-30T17:14:44.888Z,1.05
2023-03-30T17:19:47.473Z,0.68
2023-03-30T17:24:51.411Z,2.42
2023-03-30T17:29:54.030Z,1.63
2023-03-30T17:34:56.626Z,2.05
2023-03-30T17:40:00.888Z,0.90
2023-03-30T17:45:04.636Z,1.27
2023-03-30T17:50:18.642Z,1.35
2023-03-30T17:55:23.447Z,1.02
2023-03-30T18:00:27.838Z,1.15
2023-03-30T18:05:32.352Z,2.63
2023-03-30T18:10:38.212Z,2.75
2023-03-30T18:15:40.876Z,2.45
2023-03-30T18:20:45.036Z,1.85
2023-03-30T18:25:49.319Z,2.22
2023-03-30T18:30:53.083Z,2.75
2023-03-30T18:35:56.754Z,1.98
2023-03-30T18:41:01.597Z,2.20
2023-03-30T18:46:04.637Z,2.35
2023-03-30T18:51:07.621Z,1.17
2023-03-30T18:56:13.788Z,4.75
2023-03-30T19:01:16.569Z,1.40
2023-03-30T19:06:21.840Z,2.17
2023-03-30T19:11:26.782Z,1.08
2023-03-30T19:16:29.367Z,0.88
2023-03-30T19:21:32.124Z,1.25
2023-03-30T19:26:36.257Z,1.92
2023-03-30T19:31:38.993Z,1.25
2023-03-30T19:36:41.590Z,1.58
2023-03-30T19:41:45.777Z,2.00
2023-03-30T19:46:48.379Z,0.90
2023-03-30T19:51:51.165Z,3.70
2023-03-30T19:56:55.125Z,1.65
2023-03-30T20:01:57.838Z,1.65
2023-03-30T20:07:00.721Z,3.35
2023-03-30T20:12:04.910Z,1.38
2023-03-30T20:17:10.369Z,1.85
2023-03-30T20:22:12.927Z,1.13
2023-03-30T20:27:16.913Z,1.33
2023-03-30T20:32:21.518Z,4.47
2023-03-30T20:37:24.140Z,1.83
2023-03-30T20:42:28.094Z,2.97
2023-03-30T20:47:31.326Z,2.03
2023-03-30T20:52:34.589Z,1.35
2023-03-30T20:57:38.465Z,1.27
2023-03-30T21:02:41.233Z,1.00
2023-03-30T21:07:46.820Z,1.45
2023-03-30T21:12:50.797Z,0.82
2023-03-30T21:17:53.534Z,5.13
2023-03-30T21:22:56.367Z,1.85
2023-03-30T21:28:00.452Z,3.10
2023-03-30T21:33:03.013Z,1.15
2023-03-30T21:38:06.022Z,2.70
2023-03-30T21:43:09.997Z,2.05
2023-03-30T21:48:14.426Z,1.70
2023-03-30T21:53:17.174Z,2.13
2023-03-30T21:58:21.186Z,1.85
2023-03-30T22:03:23.818Z,3.47
2023-03-30T22:08:26.717Z,1.83
2023-03-30T22:13:30.745Z,3.50
2023-03-30T22:18:33.483Z,1.70
2023-03-30T22:23:36.025Z,1.60
2023-03-30T22:28:39.937Z,3.88
2023-03-30T22:33:42.503Z,3.40
2023-03-30T22:38:45.470Z,3.17
2023-03-30T22:43:49.750Z,1.88
2023-03-30T22:48:55.570Z,1.67
2023-03-30T22:53:59.337Z,3.83
2023-03-30T22:59:03.412Z,1.25
2023-03-30T23:04:06.145Z,1.33
2023-03-30T23:09:08.726Z,1.00
2023-03-30T23:14:12.639Z,1.35
2023-03-30T23:19:16.014Z,2.67
2023-03-30T23:24:18.557Z,0.73
2023-03-30T23:29:22.459Z,2.75
2023-03-30T23:34:25.013Z,2.78
2023-03-30T23:39:27.674Z,3.10
2023-03-30T23:44:31.538Z,3.00
2023-03-30T23:49:34.066Z,2.30
2023-03-30T23:54:40.779Z,3.22
2023-03-30T23:59:44.779Z,1.63
